sensor_id;sensor_type;location;lat;lon;timestamp;pressure;altitude;pressure_sealevel;temperature;humidity
33189;BME280;52601;53.070;10.600;2023-08-08T00:00:36;100670.50;;;14.26;100.00
33189;BME280;52601;53.070;10.600;2023-08-08T00:03:22;100639.88;;;14.24;100.00
33189;BME280;52601;53.070;10.600;2023-08-08T00:06:07;100664.75;;;14.34;100.00
33189;BME280;52601;53.070;10.600;2023-08-08T00:08:53;100644.56;;;14.47;100.00
33189;BME280;52601;53.070;10.600;2023-08-08T00:11:39;100646.81;;;14.53;100.00
33189;BME280;52601;53.070;10.600;2023-08-08T00:14:25;100645.09;;;14.52;100.00
33189;BME280;52601;53.070;10.600;2023-08-08T00:17:11;100652.31;;;14.36;100.00
33189;BME280;52601;53.070;10.600;2023-08-08T00:19:56;100651.91;;;14.42;100.00
33189;BME280;52601;53.070;10.600;2023-08-08T00:22:42;100655.53;;;14.27;100.00
33189;BME280;52601;53.070;10.600;2023-08-08T00:25:28;100654.41;;;14.31;100.00
33189;BME280;52601;53.070;10.600;2023-08-08T00:28:13;100650.81;;;14.18;100.00
33189;BME280;52601;53.070;10.600;2023-08-08T00:30:59;100654.41;;;14.17;100.00
33189;BME280;52601;53.070;10.600;2023-08-08T00:33:45;100653.03;;;14.11;100.00
33189;BME280;52601;53.070;10.600;2023-08-08T00:36:30;100656.09;;;14.18;100.00
33189;BME280;52601;53.070;10.600;2023-08-08T00:39:16;100662.94;;;14.08;100.00
33189;BME280;52601;53.070;10.600;2023-08-08T00:42:02;100661.31;;;14.19;100.00
33189;BME280;52601;53.070;10.600;2023-08-08T00:44:48;100658.19;;;14.13;100.00
33189;BME280;52601;53.070;10.600;2023-08-08T00:47:34;100656.97;;;14.18;100.00
33189;BME280;52601;53.070;10.600;2023-08-08T00:50:20;100667.31;;;14.21;100.00
33189;BME280;52601;53.070;10.600;2023-08-08T00:53:06;100663.09;;;14.33;100.00
33189;BME280;52601;53.070;10.600;2023-08-08T00:55:53;100653.63;;;14.43;100.00
33189;BME280;52601;53.070;10.600;2023-08-08T00:58:39;100635.69;;;14.48;100.00
33189;BME280;52601;53.070;10.600;2023-08-08T01:01:25;100653.00;;;14.52;100.00
33189;BME280;52601;53.070;10.600;2023-08-08T01:04:11;100655.06;;;14.61;100.00
33189;BME280;52601;53.070;10.600;2023-08-08T01:07:12;100649.47;;;14.65;100.00
33189;BME280;52601;53.070;10.600;2023-08-08T01:10:12;100643.78;;;14.72;100.00
33189;BME280;52601;53.070;10.600;2023-08-08T01:13:03;100639.88;;;14.64;100.00
33189;BME280;52601;53.070;10.600;2023-08-08T01:15:49;100630.91;;;14.80;100.00
33189;BME280;52601;53.070;10.600;2023-08-08T01:18:36;100627.56;;;14.90;100.00
33189;BME280;52601;53.070;10.600;2023-08-08T01:21:23;100636.47;;;14.89;100.00
33189;BME280;52601;53.070;10.600;2023-08-08T01:24:14;100630.84;;;14.94;100.00
33189;BME280;52601;53.070;10.600;2023-08-08T01:27:00;100629.28;;;14.91;100.00
33189;BME280;52601;53.070;10.600;2023-08-08T01:29:46;100622.19;;;14.92;100.00
33189;BME280;52601;53.070;10.600;2023-08-08T01:32:31;100625.22;;;14.73;100.00
33189;BME280;52601;53.070;10.600;2023-08-08T01:35:17;100619.53;;;14.79;100.00
33189;BME280;52601;53.070;10.600;2023-08-08T01:38:14;100633.44;;;14.68;100.00
33189;BME280;52601;53.070;10.600;2023-08-08T01:41:04;100643.81;;;14.84;100.00
33189;BME280;52601;53.070;10.600;2023-08-08T01:43:52;100627.47;;;14.79;100.00
33189;BME280;52601;53.070;10.600;2023-08-08T01:46:38;100633.88;;;14.75;100.00
33189;BME280;52601;53.070;10.600;2023-08-08T01:49:24;100634.94;;;14.73;100.00
33189;BME280;52601;53.070;10.600;2023-08-08T01:52:09;100636.50;;;14.62;100.00
33189;BME280;52601;53.070;10.600;2023-08-08T01:54:55;100642.63;;;14.76;100.00
33189;BME280;52601;53.070;10.600;2023-08-08T01:57:41;100642.97;;;14.71;100.00
33189;BME280;52601;53.070;10.600;2023-08-08T02:00:26;100645.72;;;14.82;100.00
33189;BME280;52601;53.070;10.600;2023-08-08T02:03:13;100645.31;;;14.88;100.00
33189;BME280;52601;53.070;10.600;2023-08-08T02:05:59;100645.53;;;14.85;100.00
33189;BME280;52601;53.070;10.600;2023-08-08T02:08:45;100643.81;;;14.84;100.00
33189;BME280;52601;53.070;10.600;2023-08-08T02:11:31;100636.94;;;14.82;100.00
33189;BME280;52601;53.070;10.600;2023-08-08T02:14:16;100625.69;;;14.92;100.00
33189;BME280;52601;53.070;10.600;2023-08-08T02:17:02;100637.94;;;14.93;100.00
33189;BME280;52601;53.070;10.600;2023-08-08T02:19:47;100624.94;;;14.90;100.00
33189;BME280;52601;53.070;10.600;2023-08-08T02:22:33;100626.97;;;15.12;100.00
33189;BME280;52601;53.070;10.600;2023-08-08T02:25:19;100628.00;;;14.97;100.00
33189;BME280;52601;53.070;10.600;2023-08-08T02:28:04;100609.38;;;14.86;100.00
33189;BME280;52601;53.070;10.600;2023-08-08T02:30:50;100614.19;;;14.93;100.00
33189;BME280;52601;53.070;10.600;2023-08-08T02:33:36;100628.09;;;14.83;100.00
33189;BME280;52601;53.070;10.600;2023-08-08T02:36:21;100628.28;;;14.80;100.00
33189;BME280;52601;53.070;10.600;2023-08-08T02:39:07;100629.84;;;14.69;100.00
33189;BME280;52601;53.070;10.600;2023-08-08T02:41:53;100637.34;;;14.76;100.00
33189;BME280;52601;53.070;10.600;2023-08-08T02:44:38;100648.25;;;14.71;100.00
33189;BME280;52601;53.070;10.600;2023-08-08T02:47:24;100648.06;;;14.87;100.00
33189;BME280;52601;53.070;10.600;2023-08-08T02:50:10;100644.84;;;14.69;100.00
33189;BME280;52601;53.070;10.600;2023-08-08T02:52:56;100654.84;;;14.51;100.00
33189;BME280;52601;53.070;10.600;2023-08-08T02:55:41;100663.25;;;14.30;100.00
33189;BME280;52601;53.070;10.600;2023-08-08T02:58:27;100663.22;;;14.44;100.00
33189;BME280;52601;53.070;10.600;2023-08-08T03:01:14;100661.31;;;14.46;100.00
33189;BME280;52601;53.070;10.600;2023-08-08T03:04:00;100665.81;;;14.58;100.00
33189;BME280;52601;53.070;10.600;2023-08-08T03:06:46;100662.75;;;14.51;100.00
33189;BME280;52601;53.070;10.600;2023-08-08T03:09:32;100653.75;;;14.41;100.00
33189;BME280;52601;53.070;10.600;2023-08-08T03:12:17;100650.47;;;14.50;100.00
33189;BME280;52601;53.070;10.600;2023-08-08T03:15:03;100652.09;;;14.53;100.00
33189;BME280;52601;53.070;10.600;2023-08-08T03:17:49;100648.47;;;14.41;100.00
33189;BME280;52601;53.070;10.600;2023-08-08T03:20:35;100647.09;;;14.48;100.00
33189;BME280;52601;53.070;10.600;2023-08-08T03:23:20;100643.31;;;14.52;100.00
33189;BME280;52601;53.070;10.600;2023-08-08T03:26:09;100644.69;;;14.58;100.00
33189;BME280;52601;53.070;10.600;2023-08-08T03:28:54;100632.31;;;14.46;100.00
33189;BME280;52601;53.070;10.600;2023-08-08T03:31:40;100628.63;;;14.48;100.00
33189;BME280;52601;53.070;10.600;2023-08-08T03:34:26;100641.72;;;14.50;100.00
33189;BME280;52601;53.070;10.600;2023-08-08T03:37:12;100636.44;;;14.50;100.00
33189;BME280;52601;53.070;10.600;2023-08-08T03:39:57;100634.00;;;14.47;100.00
33189;BME280;52601;53.070;10.600;2023-08-08T03:42:43;100627.94;;;14.32;100.00
33189;BME280;52601;53.070;10.600;2023-08-08T03:45:28;100632.72;;;14.26;100.00
33189;BME280;52601;53.070;10.600;2023-08-08T03:48:14;100640.09;;;14.35;100.00
33189;BME280;52601;53.070;10.600;2023-08-08T03:51:00;100635.84;;;14.32;100.00
33189;BME280;52601;53.070;10.600;2023-08-08T03:53:45;100637.56;;;14.19;100.00
33189;BME280;52601;53.070;10.600;2023-08-08T03:56:31;100643.75;;;14.32;100.00
33189;BME280;52601;53.070;10.600;2023-08-08T03:59:16;100625.34;;;14.45;100.00
33189;BME280;52601;53.070;10.600;2023-08-08T04:02:02;100632.53;;;14.43;100.00
33189;BME280;52601;53.070;10.600;2023-08-08T04:04:48;100624.59;;;14.43;100.00
33189;BME280;52601;53.070;10.600;2023-08-08T04:07:34;100621.00;;;14.44;100.00
33189;BME280;52601;53.070;10.600;2023-08-08T04:10:20;100617.31;;;14.46;100.00
33189;BME280;52601;53.070;10.600;2023-08-08T04:13:06;100625.69;;;14.92;100.00
33189;BME280;52601;53.070;10.600;2023-08-08T04:15:51;100614.75;;;14.59;100.00
33189;BME280;52601;53.070;10.600;2023-08-08T04:18:37;100610.88;;;14.90;100.00
33189;BME280;52601;53.070;10.600;2023-08-08T04:21:23;100604.53;;;14.80;100.00
33189;BME280;52601;53.070;10.600;2023-08-08T04:24:10;100605.78;;;14.74;100.00
33189;BME280;52601;53.070;10.600;2023-08-08T04:26:57;100608.66;;;14.84;100.00
33189;BME280;52601;53.070;10.600;2023-08-08T04:29:43;100591.97;;;15.33;100.00
33189;BME280;52601;53.070;10.600;2023-08-08T04:32:28;100581.63;;;15.30;100.00
33189;BME280;52601;53.070;10.600;2023-08-08T04:35:14;100581.94;;;15.26;100.00
33189;BME280;52601;53.070;10.600;2023-08-08T04:37:59;100573.28;;;15.36;100.00
33189;BME280;52601;53.070;10.600;2023-08-08T04:40:45;100579.19;;;15.27;100.00
33189;BME280;52601;53.070;10.600;2023-08-08T04:43:31;100584.81;;;14.98;100.00
33189;BME280;52601;53.070;10.600;2023-08-08T04:46:16;100602.25;;;15.13;100.00
33189;BME280;52601;53.070;10.600;2023-08-08T04:49:02;100588.09;;;15.39;100.00
33189;BME280;52601;53.070;10.600;2023-08-08T04:51:47;100585.75;;;15.47;100.00
33189;BME280;52601;53.070;10.600;2023-08-08T04:54:33;100581.72;;;15.41;100.00
33189;BME280;52601;53.070;10.600;2023-08-08T04:57:18;100566.69;;;16.03;100.00
33189;BME280;52601;53.070;10.600;2023-08-08T05:00:04;100554.88;;;16.20;100.00
33189;BME280;52601;53.070;10.600;2023-08-08T05:02:53;100561.22;;;16.17;100.00
33189;BME280;52601;53.070;10.600;2023-08-08T05:05:39;100550.44;;;16.20;100.00
33189;BME280;52601;53.070;10.600;2023-08-08T05:08:24;100552.38;;;16.29;100.00
33189;BME280;52601;53.070;10.600;2023-08-08T05:11:10;100560.50;;;15.92;100.00
33189;BME280;52601;53.070;10.600;2023-08-08T05:13:56;100567.25;;;15.96;100.00
33189;BME280;52601;53.070;10.600;2023-08-08T05:16:41;100566.47;;;16.06;100.00
33189;BME280;52601;53.070;10.600;2023-08-08T05:19:27;100558.81;;;16.14;100.00
33189;BME280;52601;53.070;10.600;2023-08-08T05:22:12;100542.47;;;16.79;100.00
33189;BME280;52601;53.070;10.600;2023-08-08T05:24:58;100540.75;;;16.43;100.00
33189;BME280;52601;53.070;10.600;2023-08-08T05:27:43;100534.50;;;16.68;100.00
33189;BME280;52601;53.070;10.600;2023-08-08T05:30:29;100552.63;;;16.50;100.00
33189;BME280;52601;53.070;10.600;2023-08-08T05:33:15;100534.00;;;16.63;100.00
33189;BME280;52601;53.070;10.600;2023-08-08T05:36:00;100543.41;;;16.67;100.00
33189;BME280;52601;53.070;10.600;2023-08-08T05:38:46;100537.97;;;16.57;100.00
33189;BME280;52601;53.070;10.600;2023-08-08T05:41:33;100546.63;;;16.59;100.00
33189;BME280;52601;53.070;10.600;2023-08-08T05:44:18;100546.91;;;16.78;100.00
33189;BME280;52601;53.070;10.600;2023-08-08T05:47:04;100554.56;;;16.35;100.00
33189;BME280;52601;53.070;10.600;2023-08-08T05:49:49;100560.59;;;16.61;100.00
33189;BME280;52601;53.070;10.600;2023-08-08T05:52:35;100552.66;;;16.61;100.00
33189;BME280;52601;53.070;10.600;2023-08-08T05:55:21;100562.56;;;16.47;100.00
33189;BME280;52601;53.070;10.600;2023-08-08T05:58:06;100563.75;;;16.66;100.00
33189;BME280;52601;53.070;10.600;2023-08-08T06:00:52;100570.13;;;16.40;100.00
33189;BME280;52601;53.070;10.600;2023-08-08T06:03:38;100567.84;;;16.47;100.00
33189;BME280;52601;53.070;10.600;2023-08-08T06:06:23;100564.16;;;16.84;100.00
33189;BME280;52601;53.070;10.600;2023-08-08T06:09:09;100547.22;;;17.42;100.00
33189;BME280;52601;53.070;10.600;2023-08-08T06:11:54;100527.81;;;18.06;100.00
33189;BME280;52601;53.070;10.600;2023-08-08T06:14:40;100509.59;;;18.44;100.00
33189;BME280;52601;53.070;10.600;2023-08-08T06:17:26;100527.31;;;18.12;100.00
33189;BME280;52601;53.070;10.600;2023-08-08T06:20:11;100529.72;;;17.72;100.00
33189;BME280;52601;53.070;10.600;2023-08-08T06:22:57;100528.81;;;17.94;100.00
33189;BME280;52601;53.070;10.600;2023-08-08T06:25:43;100515.06;;;18.43;100.00
33189;BME280;52601;53.070;10.600;2023-08-08T06:28:28;100504.00;;;18.27;100.00
33189;BME280;52601;53.070;10.600;2023-08-08T06:31:15;100502.03;;;18.60;100.00
33189;BME280;52601;53.070;10.600;2023-08-08T06:34:01;100498.53;;;18.80;100.00
33189;BME280;52601;53.070;10.600;2023-08-08T06:36:47;100496.34;;;19.55;100.00
33189;BME280;52601;53.070;10.600;2023-08-08T06:39:32;100482.84;;;19.38;100.00
33189;BME280;52601;53.070;10.600;2023-08-08T06:42:18;100487.91;;;18.80;100.00
33189;BME280;52601;53.070;10.600;2023-08-08T06:45:04;100501.69;;;18.54;100.00
33189;BME280;52601;53.070;10.600;2023-08-08T06:47:49;100487.63;;;18.83;100.00
33189;BME280;52601;53.070;10.600;2023-08-08T06:50:35;100495.69;;;18.72;100.00
33189;BME280;52601;53.070;10.600;2023-08-08T06:53:21;100487.13;;;19.29;100.00
33189;BME280;52601;53.070;10.600;2023-08-08T06:56:07;100488.84;;;18.79;100.00
33189;BME280;52601;53.070;10.600;2023-08-08T06:58:53;100487.66;;;18.93;100.00
33189;BME280;52601;53.070;10.600;2023-08-08T07:01:39;100467.34;;;21.23;100.00
33189;BME280;52601;53.070;10.600;2023-08-08T07:04:24;100453.22;;;21.85;100.00
33189;BME280;52601;53.070;10.600;2023-08-08T07:07:10;100422.75;;;22.82;100.00
33189;BME280;52601;53.070;10.600;2023-08-08T07:09:56;100427.13;;;24.79;94.15
33189;BME280;52601;53.070;10.600;2023-08-08T07:12:42;100428.69;;;26.04;86.82
33189;BME280;52601;53.070;10.600;2023-08-08T07:15:27;100418.72;;;28.09;72.38
33189;BME280;52601;53.070;10.600;2023-08-08T07:18:13;100407.91;;;26.73;79.93
33189;BME280;52601;53.070;10.600;2023-08-08T07:20:59;100417.94;;;24.57;83.69
33189;BME280;52601;53.070;10.600;2023-08-08T07:23:44;100432.78;;;23.13;90.93
33189;BME280;52601;53.070;10.600;2023-08-08T07:26:30;100436.41;;;21.57;100.00
33189;BME280;52601;53.070;10.600;2023-08-08T07:29:16;100426.31;;;22.90;100.00
33189;BME280;52601;53.070;10.600;2023-08-08T07:32:03;100415.00;;;22.96;94.01
33189;BME280;52601;53.070;10.600;2023-08-08T07:34:50;100416.63;;;21.50;100.00
33189;BME280;52601;53.070;10.600;2023-08-08T07:37:36;100430.91;;;21.59;100.00
33189;BME280;52601;53.070;10.600;2023-08-08T07:40:21;100405.31;;;21.83;100.00
33189;BME280;52601;53.070;10.600;2023-08-08T07:43:07;100411.13;;;20.60;100.00
33189;BME280;52601;53.070;10.600;2023-08-08T07:45:52;100414.94;;;21.31;100.00
33189;BME280;52601;53.070;10.600;2023-08-08T07:48:38;100412.69;;;21.27;100.00
33189;BME280;52601;53.070;10.600;2023-08-08T07:51:23;100402.13;;;21.53;100.00
33189;BME280;52601;53.070;10.600;2023-08-08T07:54:10;100417.16;;;21.54;100.00
33189;BME280;52601;53.070;10.600;2023-08-08T07:56:56;100422.75;;;21.15;100.00
33189;BME280;52601;53.070;10.600;2023-08-08T07:59:41;100426.34;;;20.31;100.00
33189;BME280;52601;53.070;10.600;2023-08-08T08:02:27;100417.91;;;20.45;100.00
33189;BME280;52601;53.070;10.600;2023-08-08T08:05:13;100430.13;;;20.10;100.00
33189;BME280;52601;53.070;10.600;2023-08-08T08:07:59;100425.69;;;20.66;100.00
33189;BME280;52601;53.070;10.600;2023-08-08T08:10:44;100424.84;;;21.39;100.00
33189;BME280;52601;53.070;10.600;2023-08-08T08:13:31;100409.50;;;23.06;100.00
33189;BME280;52601;53.070;10.600;2023-08-08T08:16:17;100387.78;;;25.02;83.66
33189;BME280;52601;53.070;10.600;2023-08-08T08:19:02;100387.53;;;26.41;75.77
33189;BME280;52601;53.070;10.600;2023-08-08T08:21:47;100377.19;;;26.96;69.34
33189;BME280;52601;53.070;10.600;2023-08-08T08:24:33;100381.69;;;25.55;73.19
33189;BME280;52601;53.070;10.600;2023-08-08T08:27:18;100372.25;;;27.00;68.53
33189;BME280;52601;53.070;10.600;2023-08-08T08:30:05;100372.50;;;26.61;66.60
33189;BME280;52601;53.070;10.600;2023-08-08T08:32:52;100376.63;;;25.97;70.33
33189;BME280;52601;53.070;10.600;2023-08-08T08:35:38;100370.88;;;26.60;68.09
33189;BME280;52601;53.070;10.600;2023-08-08T08:38:23;100374.50;;;25.39;70.42
33189;BME280;52601;53.070;10.600;2023-08-08T08:41:11;100376.22;;;23.82;77.49
33189;BME280;52601;53.070;10.600;2023-08-08T08:44:00;100369.69;;;23.69;83.78
33189;BME280;52601;53.070;10.600;2023-08-08T08:46:47;100374.63;;;24.85;80.80
33189;BME280;52601;53.070;10.600;2023-08-08T08:49:34;100372.41;;;24.33;75.78
33189;BME280;52601;53.070;10.600;2023-08-08T08:52:20;100373.94;;;24.12;77.22
33189;BME280;52601;53.070;10.600;2023-08-08T08:55:08;100353.63;;;26.84;65.74
33189;BME280;52601;53.070;10.600;2023-08-08T08:57:53;100357.84;;;26.49;68.50
33189;BME280;52601;53.070;10.600;2023-08-08T09:00:40;100347.00;;;26.42;64.77
33189;BME280;52601;53.070;10.600;2023-08-08T09:03:26;100363.09;;;25.45;67.30
33189;BME280;52601;53.070;10.600;2023-08-08T09:06:12;100357.59;;;26.88;66.01
33189;BME280;52601;53.070;10.600;2023-08-08T09:08:57;100350.66;;;27.44;62.84
33189;BME280;52601;53.070;10.600;2023-08-08T09:11:59;100350.50;;;26.43;64.28
33189;BME280;52601;53.070;10.600;2023-08-08T09:14:45;100337.72;;;26.30;66.61
33189;BME280;52601;53.070;10.600;2023-08-08T09:17:31;100349.97;;;24.02;72.69
33189;BME280;52601;53.070;10.600;2023-08-08T09:20:20;100383.63;;;23.23;88.57
33189;BME280;52601;53.070;10.600;2023-08-08T09:23:05;100420.44;;;21.20;100.00
33189;BME280;52601;53.070;10.600;2023-08-08T09:25:51;100446.78;;;19.54;100.00
33189;BME280;52601;53.070;10.600;2023-08-08T09:28:37;100479.13;;;18.89;100.00
33189;BME280;52601;53.070;10.600;2023-08-08T09:31:25;100502.41;;;18.56;100.00
33189;BME280;52601;53.070;10.600;2023-08-08T09:34:10;100567.91;;;17.92;100.00
33189;BME280;52601;53.070;10.600;2023-08-08T09:36:56;100565.31;;;17.26;100.00
33189;BME280;52601;53.070;10.600;2023-08-08T09:39:42;100992.41;;;29.20;100.00
33189;BME280;52601;53.070;10.600;2023-08-08T09:42:27;101506.19;;;47.13;100.00
33189;BME280;52601;53.070;10.600;2023-08-08T09:45:13;100905.31;;;21.47;100.00
33189;BME280;52601;53.070;10.600;2023-08-08T09:47:59;100898.94;;;21.19;100.00
33189;BME280;52601;53.070;10.600;2023-08-08T09:50:44;100845.47;;;21.59;100.00
33189;BME280;52601;53.070;10.600;2023-08-08T09:53:31;100896.22;;;21.10;100.00
33189;BME280;52601;53.070;10.600;2023-08-08T09:56:17;100822.91;;;22.28;100.00
33189;BME280;52601;53.070;10.600;2023-08-08T09:59:03;100840.25;;;23.51;100.00
33189;BME280;52601;53.070;10.600;2023-08-08T10:01:50;100500.34;;;25.58;100.00
33189;BME280;52601;53.070;10.600;2023-08-08T10:04:36;100381.41;;;28.68;100.00
33189;BME280;52601;53.070;10.600;2023-08-08T10:07:21;100382.78;;;31.22;100.00
33189;BME280;52601;53.070;10.600;2023-08-08T10:10:09;100375.72;;;31.59;84.79
33189;BME280;52601;53.070;10.600;2023-08-08T10:12:55;100387.72;;;29.83;80.04
33189;BME280;52601;53.070;10.600;2023-08-08T10:15:40;100370.41;;;26.57;93.27
33189;BME280;52601;53.070;10.600;2023-08-08T10:18:27;100382.09;;;26.12;100.00
33189;BME280;52601;53.070;10.600;2023-08-08T10:21:12;100369.31;;;26.14;100.00
33189;BME280;52601;53.070;10.600;2023-08-08T10:24:03;100384.88;;;26.99;100.00
33189;BME280;52601;53.070;10.600;2023-08-08T10:26:56;100384.78;;;28.00;87.88
33189;BME280;52601;53.070;10.600;2023-08-08T10:29:46;100385.38;;;27.39;87.16
33189;BME280;52601;53.070;10.600;2023-08-08T10:32:42;100381.31;;;27.28;90.47
33189;BME280;52601;53.070;10.600;2023-08-08T10:35:36;100388.97;;;25.38;100.00
33189;BME280;52601;53.070;10.600;2023-08-08T10:38:23;100394.69;;;25.66;99.39
33189;BME280;52601;53.070;10.600;2023-08-08T10:41:11;100403.56;;;25.44;99.41
33189;BME280;52601;53.070;10.600;2023-08-08T10:43:57;100395.03;;;24.07;100.00
33189;BME280;52601;53.070;10.600;2023-08-08T10:46:43;100399.16;;;23.77;100.00
33189;BME280;52601;53.070;10.600;2023-08-08T10:49:30;100397.00;;;23.88;100.00
33189;BME280;52601;53.070;10.600;2023-08-08T10:52:16;100399.38;;;24.24;100.00
33189;BME280;52601;53.070;10.600;2023-08-08T10:55:02;100393.50;;;24.28;100.00
33189;BME280;52601;53.070;10.600;2023-08-08T10:57:55;100427.31;;;23.97;100.00
33189;BME280;52601;53.070;10.600;2023-08-08T11:00:43;100557.56;;;44.68;100.00
33189;BME280;52601;53.070;10.600;2023-08-08T11:03:30;100779.91;;;42.96;100.00
33189;BME280;52601;53.070;10.600;2023-08-08T11:06:16;100806.75;;;28.27;100.00
33189;BME280;52601;53.070;10.600;2023-08-08T11:09:05;100490.19;;;22.68;100.00
33189;BME280;52601;53.070;10.600;2023-08-08T11:11:51;100465.91;;;21.28;100.00
33189;BME280;52601;53.070;10.600;2023-08-08T11:14:37;100455.06;;;21.30;100.00
33189;BME280;52601;53.070;10.600;2023-08-08T11:17:22;100476.28;;;21.59;100.00
33189;BME280;52601;53.070;10.600;2023-08-08T11:20:08;100466.59;;;20.84;100.00
33189;BME280;52601;53.070;10.600;2023-08-08T11:22:55;100445.69;;;20.43;100.00
33189;BME280;52601;53.070;10.600;2023-08-08T11:25:43;100428.59;;;21.64;100.00
33189;BME280;52601;53.070;10.600;2023-08-08T11:28:29;100431.38;;;21.27;100.00
33189;BME280;52601;53.070;10.600;2023-08-08T11:31:15;100445.94;;;21.77;100.00
33189;BME280;52601;53.070;10.600;2023-08-08T11:34:01;100454.38;;;21.82;100.00
33189;BME280;52601;53.070;10.600;2023-08-08T11:36:47;100454.50;;;21.54;100.00
33189;BME280;52601;53.070;10.600;2023-08-08T11:39:33;100454.97;;;22.11;100.00
33189;BME280;52601;53.070;10.600;2023-08-08T11:42:19;100461.31;;;22.10;100.00
33189;BME280;52601;53.070;10.600;2023-08-08T11:45:05;100485.81;;;21.88;100.00
33189;BME280;52601;53.070;10.600;2023-08-08T11:47:55;100469.38;;;21.38;100.00
33189;BME280;52601;53.070;10.600;2023-08-08T11:50:40;100469.53;;;20.91;100.00
33189;BME280;52601;53.070;10.600;2023-08-08T11:53:27;100450.97;;;21.63;100.00
33189;BME280;52601;53.070;10.600;2023-08-08T11:56:13;100454.00;;;20.77;100.00
33189;BME280;52601;53.070;10.600;2023-08-08T11:58:59;100453.63;;;20.62;100.00
33189;BME280;52601;53.070;10.600;2023-08-08T12:01:45;100442.03;;;19.87;100.00
33189;BME280;52601;53.070;10.600;2023-08-08T12:04:30;100422.72;;;19.94;100.00
33189;BME280;52601;53.070;10.600;2023-08-08T12:07:17;100416.81;;;20.10;100.00
33189;BME280;52601;53.070;10.600;2023-08-08T12:10:04;100411.97;;;22.66;100.00
33189;BME280;52601;53.070;10.600;2023-08-08T12:12:54;100397.09;;;26.43;100.00
33189;BME280;52601;53.070;10.600;2023-08-08T12:15:42;100378.03;;;29.47;100.00
33189;BME280;52601;53.070;10.600;2023-08-08T12:18:29;100369.75;;;29.62;100.00
33189;BME280;52601;53.070;10.600;2023-08-08T12:21:15;100368.16;;;29.87;100.00
33189;BME280;52601;53.070;10.600;2023-08-08T12:24:01;100368.38;;;28.50;100.00
33189;BME280;52601;53.070;10.600;2023-08-08T12:26:46;100356.06;;;27.50;100.00
33189;BME280;52601;53.070;10.600;2023-08-08T12:29:32;100377.13;;;25.55;100.00
33189;BME280;52601;53.070;10.600;2023-08-08T12:32:20;100418.78;;;24.02;100.00
33189;BME280;52601;53.070;10.600;2023-08-08T12:35:08;100421.19;;;23.47;100.00
33189;BME280;52601;53.070;10.600;2023-08-08T12:37:54;100419.50;;;22.45;100.00
33189;BME280;52601;53.070;10.600;2023-08-08T12:40:39;100418.31;;;22.47;100.00
33189;BME280;52601;53.070;10.600;2023-08-08T12:43:25;100412.28;;;22.19;100.00
33189;BME280;52601;53.070;10.600;2023-08-08T12:46:11;100402.22;;;22.57;100.00
33189;BME280;52601;53.070;10.600;2023-08-08T12:48:57;100397.84;;;23.89;100.00
33189;BME280;52601;53.070;10.600;2023-08-08T12:51:42;100390.41;;;26.39;100.00
33189;BME280;52601;53.070;10.600;2023-08-08T12:54:27;100378.38;;;28.01;100.00
33189;BME280;52601;53.070;10.600;2023-08-08T12:57:13;100381.94;;;26.94;100.00
33189;BME280;52601;53.070;10.600;2023-08-08T12:59:59;100378.97;;;25.24;100.00
33189;BME280;52601;53.070;10.600;2023-08-08T13:02:44;100383.72;;;24.75;100.00
33189;BME280;52601;53.070;10.600;2023-08-08T13:05:30;100382.50;;;24.70;100.00
33189;BME280;52601;53.070;10.600;2023-08-08T13:08:16;100385.63;;;25.67;100.00
33189;BME280;52601;53.070;10.600;2023-08-08T13:11:02;100365.53;;;29.40;99.88
33189;BME280;52601;53.070;10.600;2023-08-08T13:13:47;100365.19;;;30.87;81.07
33189;BME280;52601;53.070;10.600;2023-08-08T13:16:33;100371.44;;;28.41;86.99
33189;BME280;52601;53.070;10.600;2023-08-08T13:19:19;100358.19;;;27.34;93.01
33189;BME280;52601;53.070;10.600;2023-08-08T13:22:06;100351.28;;;28.64;94.30
33189;BME280;52601;53.070;10.600;2023-08-08T13:24:52;100359.34;;;29.65;83.03
33189;BME280;52601;53.070;10.600;2023-08-08T13:27:37;100365.16;;;28.06;86.61
33189;BME280;52601;53.070;10.600;2023-08-08T13:30:24;100358.72;;;26.64;97.10
33189;BME280;52601;53.070;10.600;2023-08-08T13:33:10;100368.84;;;25.65;100.00
33189;BME280;52601;53.070;10.600;2023-08-08T13:35:55;100379.13;;;24.92;100.00
33189;BME280;52601;53.070;10.600;2023-08-08T13:38:41;100409.38;;;23.73;100.00
33189;BME280;52601;53.070;10.600;2023-08-08T13:41:26;100454.97;;;22.72;100.00
33189;BME280;52601;53.070;10.600;2023-08-08T13:44:12;100494.34;;;41.12;100.00
33189;BME280;52601;53.070;10.600;2023-08-08T13:46:57;100478.00;;;21.50;100.00
33189;BME280;52601;53.070;10.600;2023-08-08T13:49:43;100469.94;;;20.30;100.00
33189;BME280;52601;53.070;10.600;2023-08-08T13:52:29;100459.44;;;20.48;100.00
33189;BME280;52601;53.070;10.600;2023-08-08T13:55:16;100444.38;;;20.56;100.00
33189;BME280;52601;53.070;10.600;2023-08-08T13:58:02;100431.06;;;20.56;100.00
33189;BME280;52601;53.070;10.600;2023-08-08T14:00:48;100424.63;;;20.96;100.00
33189;BME280;52601;53.070;10.600;2023-08-08T14:03:34;100410.13;;;21.08;100.00
33189;BME280;52601;53.070;10.600;2023-08-08T14:06:20;100406.78;;;21.33;100.00